Time;durP1;ratioP1;P1;durP2;ratioP2;P2;SDS_P1;SDS_P2;PMS_P1;PMS_P2;Temp;Humidity;BMP_temperature;BMP_pressure;BME280_temperature;BME280_humidity;BME280_pressure;Samples;Min_cycle;Max_cycle;Signal;HPM_P1;HPM_P2
2021/07/02 00:00:11;;;;;;;2.67;2.47;;;22.60;57.60;;;;;;5013198;28;20079;-84
2021/07/02 00:02:39;;;;;;;2.00;1.90;;;22.60;57.70;;;;;;5015171;28;20021;-84
2021/07/02 00:05:06;;;;;;;1.33;1.23;;;22.50;57.80;;;;;;5013676;28;20038;-84
2021/07/02 00:07:33;;;;;;;1.50;1.10;;;22.50;57.90;;;;;;5029792;28;20018;-85
2021/07/02 00:09:59;;;;;;;6.07;0.95;;;22.50;58.00;;;;;;5030534;28;20038;-84
2021/07/02 00:12:25;;;;;;;0.85;0.85;;;22.40;58.10;;;;;;5014243;28;20040;-84
2021/07/02 00:14:51;;;;;;;0.65;0.50;;;22.40;58.20;;;;;;5010825;28;20038;-84
2021/07/02 00:17:17;;;;;;;0.98;0.80;;;22.30;58.30;;;;;;5007117;28;20029;-84
2021/07/02 00:19:43;;;;;;;1.08;0.55;;;22.30;58.30;;;;;;5030311;28;20078;-84
2021/07/02 00:22:09;;;;;;;1.35;0.95;;;22.30;58.40;;;;;;5014621;28;20457;-84
2021/07/02 00:24:35;;;;;;;0.73;0.73;;;22.30;58.40;;;;;;5014548;28;20034;-83
2021/07/02 00:27:01;;;;;;;0.68;0.63;;;22.20;58.50;;;;;;5010446;28;20038;-84
2021/07/02 00:29:28;;;;;;;0.80;0.63;;;22.20;58.60;;;;;;5008490;28;20046;-84
2021/07/02 00:31:54;;;;;;;0.80;0.55;;;22.20;58.70;;;;;;5014213;28;20045;-84
2021/07/02 00:34:20;;;;;;;0.38;0.38;;;22.20;58.80;;;;;;5014649;28;20043;-84
2021/07/02 00:36:47;;;;;;;0.65;0.65;;;22.20;58.90;;;;;;5014850;28;20460;-84
2021/07/02 00:39:13;;;;;;;0.50;0.50;;;22.10;58.80;;;;;;5029783;28;20057;-84
2021/07/02 00:41:39;;;;;;;0.73;0.73;;;22.10;58.90;;;;;;5029649;28;20037;-84
2021/07/02 00:44:05;;;;;;;0.70;0.65;;;22.10;59.00;;;;;;5013270;28;20057;-86
2021/07/02 00:46:31;;;;;;;0.50;0.50;;;22.10;59.10;;;;;;5028165;28;20035;-84
2021/07/02 00:48:57;;;;;;;1.05;0.50;;;22.00;59.70;;;;;;5013478;28;20038;-84
2021/07/02 00:51:23;;;;;;;4.75;4.45;;;22.00;59.20;;;;;;5014270;28;20029;-84
2021/07/02 00:53:49;;;;;;;1.25;0.85;;;22.00;59.20;;;;;;5029630;28;20049;-84
2021/07/02 00:56:17;;;;;;;0.40;0.40;;;22.00;59.30;;;;;;5013963;28;20038;-84
2021/07/02 00:58:43;;;;;;;0.82;0.60;;;21.90;59.30;;;;;;5012650;28;20034;-85
2021/07/02 01:01:14;;;;;;;1.23;1.02;;;21.90;59.40;;;;;;5012493;28;22285;-84
2021/07/02 01:03:44;;;;;;;0.57;0.55;;;21.90;59.60;;;;;;5013454;28;20022;-83
2021/07/02 01:06:11;;;;;;;1.37;1.27;;;21.90;59.60;;;;;;5028874;28;20042;-86
2021/07/02 01:08:38;;;;;;;1.10;1.00;;;21.80;59.60;;;;;;5028960;28;20506;-84
2021/07/02 01:11:04;;;;;;;2.47;1.30;;;21.80;59.70;;;;;;5029113;28;20400;-84
2021/07/02 01:13:30;;;;;;;1.05;1.05;;;21.80;59.80;;;;;;5013803;28;20033;-84
2021/07/02 01:15:56;;;;;;;0.77;0.77;;;21.70;59.90;;;;;;5028825;28;20030;-84
2021/07/02 01:18:22;;;;;;;0.80;0.80;;;21.60;60.00;;;;;;5014113;28;20041;-83
2021/07/02 01:20:50;;;;;;;2.88;2.72;;;21.60;60.10;;;;;;5028380;28;20046;-84
2021/07/02 01:23:17;;;;;;;1.85;1.75;;;21.50;60.20;;;;;;5013802;28;20022;-84
2021/07/02 01:25:43;;;;;;;1.73;1.63;;;21.50;60.30;;;;;;5028936;28;20037;-84
2021/07/02 01:28:09;;;;;;;1.80;1.70;;;21.50;60.30;;;;;;5028864;28;20476;-83
2021/07/02 01:30:35;;;;;;;1.80;1.70;;;21.50;60.40;;;;;;5012066;28;20048;-82
2021/07/02 01:33:01;;;;;;;1.95;1.85;;;21.50;60.50;;;;;;5008851;28;20111;-84
2021/07/02 01:35:27;;;;;;;1.60;1.50;;;21.50;60.50;;;;;;5005962;28;20038;-84
2021/07/02 01:37:54;;;;;;;2.83;2.58;;;21.50;60.60;;;;;;5028579;28;20025;-84
2021/07/02 01:40:20;;;;;;;2.47;2.38;;;21.40;60.60;;;;;;5013138;28;20049;-85
2021/07/02 01:42:46;;;;;;;1.88;1.77;;;21.40;60.70;;;;;;5012794;28;20045;-84
2021/07/02 01:45:12;;;;;;;2.20;2.10;;;21.40;60.80;;;;;;5028123;28;20396;-84
2021/07/02 01:47:39;;;;;;;5.20;4.90;;;21.30;60.90;;;;;;5012953;28;20029;-84
2021/07/02 01:50:05;;;;;;;0.90;0.90;;;21.40;61.10;;;;;;5028008;28;20060;-83
2021/07/02 01:52:32;;;;;;;0.03;0.00;;;21.30;61.00;;;;;;5028472;28;20033;-84
2021/07/02 01:54:58;;;;;;;0.82;0.30;;;21.30;61.10;;;;;;5012168;28;20046;-84
2021/07/02 01:57:26;;;;;;;0.30;0.10;;;21.30;61.20;;;;;;5013025;28;20026;-84
2021/07/02 01:59:56;;;;;;;1.00;0.32;;;21.30;61.20;;;;;;5012803;28;20045;-82
2021/07/02 02:02:22;;;;;;;0.20;0.20;;;21.30;61.30;;;;;;5009807;28;20049;-81
2021/07/02 02:04:48;;;;;;;0.32;0.28;;;21.20;61.30;;;;;;5022958;28;20036;-83
2021/07/02 02:07:15;;;;;;;0.47;0.28;;;21.20;61.40;;;;;;5018626;28;20480;-84
2021/07/02 02:09:41;;;;;;;0.80;0.10;;;21.20;61.40;;;;;;5000902;28;20038;-83
2021/07/02 02:12:07;;;;;;;0.10;0.10;;;21.20;61.50;;;;;;5020157;28;20500;-83
2021/07/02 02:14:33;;;;;;;0.52;0.28;;;21.10;61.60;;;;;;5019113;28;20388;-84
2021/07/02 02:16:59;;;;;;;1.65;0.65;;;21.10;61.60;;;;;;5010951;28;20481;-83
2021/07/02 02:19:26;;;;;;;0.00;0.00;;;21.10;61.60;;;;;;5022035;28;20050;-83
2021/07/02 02:21:52;;;;;;;0.10;0.03;;;21.10;61.70;;;;;;5006808;28;20034;-83
2021/07/02 02:24:18;;;;;;;0.30;0.10;;;21.10;61.80;;;;;;4987378;28;20040;-83
2021/07/02 02:26:45;;;;;;;0.10;0.00;;;21.10;61.80;;;;;;5018844;28;20026;-83
2021/07/02 02:29:11;;;;;;;0.38;0.17;;;21.00;61.80;;;;;;5018734;28;20061;-84
2021/07/02 02:31:37;;;;;;;0.10;0.10;;;21.00;61.90;;;;;;5024153;28;20044;-84
2021/07/02 02:34:03;;;;;;;3.13;0.45;;;21.00;62.00;;;;;;5025159;28;20045;-81
2021/07/02 02:36:29;;;;;;;0.45;0.10;;;21.00;62.00;;;;;;5005422;28;20030;-84
2021/07/02 02:38:56;;;;;;;0.77;0.17;;;21.00;62.10;;;;;;5009543;28;20034;-83
2021/07/02 02:41:22;;;;;;;1.27;0.85;;;20.90;62.20;;;;;;5027556;28;20404;-83
2021/07/02 02:43:48;;;;;;;0.00;0.00;;;20.90;62.20;;;;;;5027700;28;20045;-84
2021/07/02 02:46:14;;;;;;;3.30;0.35;;;20.90;62.30;;;;;;5011588;28;20046;-83
2021/07/02 02:48:40;;;;;;;0.35;0.10;;;20.90;62.40;;;;;;5011788;28;20033;-85
2021/07/02 02:51:06;;;;;;;0.90;0.32;;;20.90;62.50;;;;;;5007483;28;20392;-82
2021/07/02 02:53:32;;;;;;;0.10;0.08;;;20.80;62.40;;;;;;5005626;28;20037;-82
2021/07/02 02:55:58;;;;;;;0.28;0.17;;;20.80;62.50;;;;;;5027375;28;20022;-84
2021/07/02 02:58:24;;;;;;;0.32;0.10;;;20.80;62.60;;;;;;5012201;28;20043;-83
2021/07/02 03:00:50;;;;;;;0.30;0.20;;;20.80;62.60;;;;;;5010350;28;20045;-83
2021/07/02 03:03:17;;;;;;;0.55;0.20;;;20.80;62.60;;;;;;5011205;28;20033;-84
2021/07/02 03:05:43;;;;;;;0.22;0.15;;;20.80;62.60;;;;;;5011972;28;20034;-83
2021/07/02 03:08:09;;;;;;;1.10;0.30;;;20.80;62.60;;;;;;5010612;28;20037;-84
2021/07/02 03:10:35;;;;;;;0.43;0.30;;;20.80;62.60;;;;;;5015092;28;20022;-84
2021/07/02 03:13:01;;;;;;;0.30;0.13;;;20.80;62.70;;;;;;5031506;28;20384;-84
2021/07/02 03:15:27;;;;;;;0.10;0.10;;;20.80;62.80;;;;;;4995099;28;20030;-84
2021/07/02 03:17:53;;;;;;;0.77;0.20;;;20.80;63.20;;;;;;4995512;28;20038;-86
2021/07/02 03:20:19;;;;;;;0.50;0.30;;;20.80;62.90;;;;;;5015848;28;20046;-84
2021/07/02 03:22:45;;;;;;;0.10;0.10;;;20.80;63.10;;;;;;5014843;28;20029;-84
2021/07/02 03:25:12;;;;;;;1.88;1.77;;;20.70;63.00;;;;;;5031049;28;20045;-84
2021/07/02 03:27:41;;;;;;;0.30;0.20;;;20.70;63.20;;;;;;5011999;28;20038;-85
2021/07/02 03:30:09;;;;;;;0.10;0.10;;;20.70;63.20;;;;;;5012907;28;20113;-84
2021/07/02 03:32:36;;;;;;;2.03;0.50;;;20.60;64.10;;;;;;5030837;28;20037;-83
2021/07/02 03:35:02;;;;;;;0.65;0.28;;;20.60;63.40;;;;;;5015592;28;20471;-84
2021/07/02 03:37:28;;;;;;;0.32;0.10;;;20.60;63.50;;;;;;5030918;28;20481;-84
2021/07/02 03:39:54;;;;;;;0.25;0.13;;;20.50;63.50;;;;;;5030959;28;20037;-82
2021/07/02 03:42:20;;;;;;;0.77;0.35;;;20.50;63.60;;;;;;5014817;28;20344;-84
2021/07/02 03:44:46;;;;;;;1.20;0.32;;;20.50;63.70;;;;;;5030301;28;20038;-84
2021/07/02 03:47:12;;;;;;;0.43;0.25;;;20.50;63.80;;;;;;5014984;28;20409;-84
2021/07/02 03:49:38;;;;;;;2.83;0.57;;;20.40;63.90;;;;;;5015382;28;20042;-84
2021/07/02 03:52:05;;;;;;;0.25;0.10;;;20.30;63.90;;;;;;5030655;28;20472;-80
2021/07/02 03:54:38;;;;;;;0.10;0.03;;;20.30;64.00;;;;;;5014691;28;20052;-83
2021/07/02 03:57:11;;;;;;;0.03;0.00;;;20.30;64.10;;;;;;5029405;28;20347;-84
2021/07/02 03:59:44;;;;;;;0.17;0.00;;;20.20;64.10;;;;;;5029275;28;20041;-84
2021/07/02 04:02:11;;;;;;;2.05;0.28;;;20.20;64.20;;;;;;5012702;28;20037;-84
2021/07/02 04:04:37;;;;;;;0.17;0.10;;;20.10;64.20;;;;;;5030464;28;20033;-83
2021/07/02 04:07:04;;;;;;;3.25;0.45;;;20.10;64.30;;;;;;5030365;28;20068;-84
2021/07/02 04:09:30;;;;;;;0.10;0.00;;;20.10;64.30;;;;;;5014404;28;20033;-84
2021/07/02 04:11:56;;;;;;;0.55;0.15;;;20.00;64.30;;;;;;5014934;28;20390;-84
2021/07/02 04:14:22;;;;;;;0.13;0.10;;;20.00;64.30;;;;;;5010081;28;20404;-84
2021/07/02 04:16:49;;;;;;;0.43;0.10;;;20.00;64.40;;;;;;5002046;28;20030;-84
2021/07/02 04:19:15;;;;;;;0.28;0.20;;;19.90;64.40;;;;;;5030142;28;20048;-84
2021/07/02 04:21:41;;;;;;;0.30;0.20;;;19.90;64.40;;;;;;5015246;28;20045;-84
2021/07/02 04:24:07;;;;;;;0.00;0.00;;;19.90;64.40;;;;;;5014777;28;20038;-85
2021/07/02 04:26:33;;;;;;;0.90;0.32;;;19.90;64.50;;;;;;5014621;28;20419;-84
2021/07/02 04:28:59;;;;;;;4.15;0.28;;;19.90;64.60;;;;;;5014183;28;20503;-84
2021/07/02 04:31:25;;;;;;;0.52;0.22;;;19.90;64.60;;;;;;5029393;28;20034;-83
2021/07/02 04:33:51;;;;;;;0.10;0.10;;;19.80;64.60;;;;;;5030269;28;20029;-88
2021/07/02 04:36:17;;;;;;;0.40;0.10;;;19.80;64.60;;;;;;5010415;28;20038;-83
2021/07/02 04:38:43;;;;;;;1.00;0.30;;;19.80;64.60;;;;;;5009343;28;20042;-84
2021/07/02 04:41:09;;;;;;;0.20;0.10;;;19.80;64.70;;;;;;5014333;28;20040;-84
2021/07/02 04:43:36;;;;;;;1.60;0.60;;;19.80;64.70;;;;;;5029405;28;20030;-82
2021/07/02 04:46:02;;;;;;;1.13;0.35;;;19.80;64.70;;;;;;5029239;28;20503;-85
2021/07/02 04:48:28;;;;;;;0.20;0.20;;;19.80;64.70;;;;;;5011572;28;20041;-84
2021/07/02 04:50:54;;;;;;;0.55;0.38;;;19.80;64.70;;;;;;5029591;28;20644;-84
2021/07/02 04:53:21;;;;;;;0.20;0.20;;;19.80;64.70;;;;;;5009832;28;20050;-84
2021/07/02 04:55:47;;;;;;;8.73;8.27;;;19.80;64.70;;;;;;5003026;28;20049;-84
2021/07/02 04:58:15;;;;;;;0.43;0.43;;;19.90;64.60;;;;;;5013792;28;20026;-84
2021/07/02 05:00:41;;;;;;;0.98;0.88;;;20.00;64.50;;;;;;5012843;28;20033;-84
2021/07/02 05:03:07;;;;;;;0.80;0.55;;;20.00;64.40;;;;;;5014009;28;20037;-84
2021/07/02 05:05:33;;;;;;;0.65;0.65;;;20.00;64.40;;;;;;5014074;28;20415;-84
2021/07/02 05:07:59;;;;;;;1.55;1.45;;;20.20;64.30;;;;;;5029075;28;20039;-84
2021/07/02 05:10:25;;;;;;;1.95;1.85;;;20.40;64.10;;;;;;5029075;28;20033;-82
2021/07/02 05:12:51;;;;;;;4.43;2.72;;;20.70;63.70;;;;;;5029006;28;20481;-83
2021/07/02 05:15:18;;;;;;;5.57;1.65;;;20.90;63.30;;;;;;5012567;28;20030;-84
2021/07/02 05:17:44;;;;;;;1.60;1.50;;;21.20;62.90;;;;;;5013742;28;20033;-84
2021/07/02 05:20:10;;;;;;;1.17;1.17;;;21.40;62.50;;;;;;5013492;28;20042;-83
2021/07/02 05:22:36;;;;;;;2.15;2.05;;;21.70;62.10;;;;;;5029189;28;20021;-84
2021/07/02 05:25:05;;;;;;;4.43;4.22;;;21.90;61.80;;;;;;5028991;28;20038;-82
2021/07/02 05:27:32;;;;;;;8.85;8.25;;;22.10;61.40;;;;;;5012634;28;20025;-84
2021/07/02 05:29:58;;;;;;;21.10;20.10;;;22.30;61.20;;;;;;5028795;28;20041;-82
2021/07/02 05:32:24;;;;;;;45.33;43.13;;;22.40;61.00;;;;;;5027596;28;20500;-83
2021/07/02 05:34:50;;;;;;;77.88;74.22;;;22.60;60.80;;;;;;5028947;28;20030;-84
2021/07/02 05:37:16;;;;;;;121.90;116.22;;;22.70;60.60;;;;;;4997736;28;20481;-84
2021/07/02 05:39:42;;;;;;;150.32;143.30;;;22.80;60.40;;;;;;4993048;28;20057;-84
2021/07/02 05:42:08;;;;;;;213.07;203.23;;;22.90;60.30;;;;;;5011330;28;20046;-83
2021/07/02 05:44:34;;;;;;;221.73;211.52;;;23.00;60.10;;;;;;5028735;28;20030;-84
2021/07/02 05:47:00;;;;;;;224.93;214.60;;;23.10;60.00;;;;;;5012495;28;20034;-84
2021/07/02 05:49:26;;;;;;;237.75;226.73;;;23.20;59.90;;;;;;5011676;28;20034;-84
2021/07/02 05:51:53;;;;;;;244.23;232.90;;;23.30;59.90;;;;;;5028615;28;20472;-83
2021/07/02 05:54:19;;;;;;;261.95;249.80;;;23.30;59.70;;;;;;5012142;28;20041;-84
2021/07/02 05:56:46;;;;;;;287.35;273.75;;;23.40;59.70;;;;;;5012828;28;20030;-84
2021/07/02 05:59:12;;;;;;;311.00;296.33;;;23.50;59.60;;;;;;5027993;28;20030;-83
2021/07/02 06:01:38;;;;;;;282.27;269.15;;;23.60;59.50;;;;;;5027818;28;20072;-84
2021/07/02 06:04:04;;;;;;;316.75;301.77;;;23.70;60.00;;;;;;5011845;28;20033;-82
2021/07/02 06:06:30;;;;;;;296.38;282.55;;;23.80;59.30;;;;;;5009255;28;20038;-84
2021/07/02 06:08:57;;;;;;;226.25;215.30;;;23.80;59.30;;;;;;5009581;28;20041;-83
2021/07/02 06:11:43;;;;;;;77.00;73.35;;;23.90;59.10;;;;;;5012495;28;20365;-84
2021/07/02 06:14:09;;;;;;;125.85;120.03;;;24.00;59.10;;;;;;5012979;28;20045;-84
2021/07/02 06:16:35;;;;;;;138.68;132.20;;;24.10;58.90;;;;;;5027408;28;20025;-84
2021/07/02 06:19:01;;;;;;;77.53;73.88;;;24.10;58.80;;;;;;5012801;28;20380;-84
2021/07/02 06:21:28;;;;;;;93.82;89.43;;;24.20;58.60;;;;;;4992367;28;20050;-84
2021/07/02 06:23:54;;;;;;;85.05;81.07;;;24.40;58.50;;;;;;5009882;28;20041;-85
2021/07/02 06:26:20;;;;;;;58.53;55.75;;;24.40;58.30;;;;;;5027639;28;20400;-84
2021/07/02 06:28:46;;;;;;;31.27;29.83;;;24.50;58.20;;;;;;5027575;28;20033;-84
2021/07/02 06:31:12;;;;;;;93.07;86.50;;;24.60;58.20;;;;;;5012118;28;20049;-84
2021/07/02 06:33:38;;;;;;;25.40;24.02;;;24.70;58.10;;;;;;5013061;28;20026;-83
2021/07/02 06:36:04;;;;;;;17.10;16.30;;;24.80;58.00;;;;;;5007627;28;20046;-84
2021/07/02 06:38:30;;;;;;;31.88;30.35;;;24.90;57.90;;;;;;5021361;28;20034;-84
2021/07/02 06:40:56;;;;;;;106.55;101.53;;;24.90;57.80;;;;;;5010761;28;20045;-84
2021/07/02 06:43:23;;;;;;;88.45;84.25;;;25.00;57.70;;;;;;5012524;28;20045;-84
2021/07/02 06:45:49;;;;;;;101.95;97.13;;;24.90;57.70;;;;;;5027348;28;20476;-82
2021/07/02 06:48:15;;;;;;;243.38;231.48;;;24.90;57.80;;;;;;5011108;28;20041;-84
2021/07/02 06:50:44;;;;;;;161.25;153.48;;;25.00;57.80;;;;;;5027256;28;20033;-85
2021/07/02 06:53:10;;;;;;;709.53;666.20;;;25.10;57.60;;;;;;5026686;28;20022;-85
2021/07/02 06:55:36;;;;;;;988.25;913.28;;;25.20;57.40;;;;;;5010756;28;20045;-82
2021/07/02 06:58:04;;;;;;;1102.97;991.38;;;25.40;57.30;;;;;;5027706;28;20392;-84
2021/07/02 07:00:30;;;;;;;1776.30;999.90;;;25.50;57.10;;;;;;5009105;28;20030;-85
2021/07/02 07:02:56;;;;;;;1463.70;999.90;;;25.60;57.00;;;;;;5027172;28;20026;-85
2021/07/02 07:05:22;;;;;;;1784.38;999.90;;;25.70;56.90;;;;;;5027268;28;20041;-85
2021/07/02 07:07:49;;;;;;;1888.28;999.90;;;25.70;56.80;;;;;;5026886;28;20026;-85
2021/07/02 07:10:15;;;;;;;1999.90;999.90;;;25.80;56.70;;;;;;5010873;28;20046;-85
2021/07/02 07:12:41;;;;;;;1999.90;999.90;;;25.90;56.60;;;;;;5011410;28;20033;-85
2021/07/02 07:15:07;;;;;;;1999.90;999.90;;;26.00;56.50;;;;;;5006724;28;20401;-84
2021/07/02 07:17:34;;;;;;;1999.90;999.90;;;26.10;56.50;;;;;;5021661;28;20026;-85
2021/07/02 07:20:00;;;;;;;1999.90;999.90;;;26.20;56.30;;;;;;5011711;28;20483;-84
2021/07/02 07:22:26;;;;;;;1999.90;999.90;;;26.40;56.20;;;;;;5026956;28;20041;-87
2021/07/02 07:24:52;;;;;;;1999.90;999.90;;;26.50;56.00;;;;;;5027258;28;20032;-85
2021/07/02 07:27:18;;;;;;;1999.90;999.90;;;26.60;56.00;;;;;;5010978;28;20467;-86
2021/07/02 07:29:44;;;;;;;1999.90;999.90;;;26.70;55.70;;;;;;5026872;28;20364;-85
2021/07/02 07:32:10;;;;;;;1999.90;999.90;;;26.90;55.60;;;;;;5009917;28;20404;-85
2021/07/02 07:34:49;;;;;;;1999.90;999.90;;;26.80;55.60;;;;;;5027158;28;20030;-84
2021/07/02 07:37:19;;;;;;;1999.90;999.90;;;26.80;55.70;;;;;;5011410;28;20650;-85
2021/07/02 07:39:46;;;;;;;1999.90;999.90;;;26.80;55.70;;;;;;5007250;28;20033;-85
2021/07/02 07:42:12;;;;;;;1999.90;999.90;;;26.80;55.60;;;;;;5026653;28;20042;-85
2021/07/02 07:44:38;;;;;;;1999.90;999.90;;;26.80;55.80;;;;;;5026984;28;20389;-85
2021/07/02 07:47:05;;;;;;;1999.90;999.90;;;26.80;55.70;;;;;;5026290;28;20045;-85
2021/07/02 07:49:31;;;;;;;1999.90;999.90;;;27.00;55.60;;;;;;5026711;28;20033;-85
2021/07/02 07:54:35;;;;;;;1622.72;999.90;;;27.40;55.20;;;;;;5012804;28;20507;-85
2021/07/02 07:57:01;;;;;;;1694.07;999.90;;;27.50;54.90;;;;;;5030102;28;20026;-85
2021/07/02 07:59:28;;;;;;;1671.32;999.90;;;27.50;54.90;;;;;;5030667;28;20090;-84
2021/07/02 08:01:54;;;;;;;1599.80;999.90;;;27.40;54.90;;;;;;5013300;28;20030;-84
2021/07/02 08:04:20;;;;;;;1625.32;999.90;;;27.30;55.10;;;;;;5030420;28;20477;-86
2021/07/02 08:06:47;;;;;;;1726.22;999.90;;;27.30;55.30;;;;;;5015325;28;20033;-86
2021/07/02 08:09:14;;;;;;;1748.32;999.90;;;27.30;55.20;;;;;;5030474;28;20041;-84
2021/07/02 08:11:41;;;;;;;1999.90;999.90;;;27.50;55.00;;;;;;5010365;28;20042;-85
2021/07/02 08:14:07;;;;;;;1999.90;999.90;;;27.60;54.80;;;;;;5006200;28;20034;-85
2021/07/02 08:16:33;;;;;;;1999.90;999.90;;;27.60;54.70;;;;;;5029746;28;20033;-85
2021/07/02 08:19:00;;;;;;;1999.90;999.90;;;27.70;54.60;;;;;;5030137;28;20041;-86
2021/07/02 08:21:26;;;;;;;1999.90;999.90;;;27.60;54.70;;;;;;5014911;28;20045;-87
2021/07/02 08:23:52;;;;;;;1999.90;999.90;;;27.70;54.70;;;;;;5030124;28;20469;-86
2021/07/02 08:26:19;;;;;;;1999.90;999.90;;;27.90;55.10;;;;;;5014699;28;20098;-86
2021/07/02 08:31:30;;;;;;;1999.90;999.90;;;28.00;54.10;;;;;;5013876;28;20038;-86
2021/07/02 08:33:57;;;;;;;1999.90;999.90;;;27.90;54.20;;;;;;5030073;28;20030;-87
2021/07/02 08:36:23;;;;;;;1999.90;999.90;;;27.80;54.30;;;;;;4993998;28;20045;-85
2021/07/02 08:38:49;;;;;;;1999.90;999.90;;;27.80;54.40;;;;;;5010060;28;20037;-86
2021/07/02 08:41:15;;;;;;;1999.90;999.90;;;28.00;54.30;;;;;;5013535;28;20057;-86
2021/07/02 08:43:42;;;;;;;1999.90;999.90;;;28.20;54.10;;;;;;5029801;28;20416;-85
2021/07/02 08:46:09;;;;;;;1999.90;999.90;;;28.30;53.80;;;;;;5029241;28;20049;-87
2021/07/02 08:48:35;;;;;;;1999.90;999.90;;;28.40;53.70;;;;;;5013772;28;20037;-86
2021/07/02 08:51:01;;;;;;;1999.90;999.90;;;28.40;53.60;;;;;;5029372;28;20396;-86
2021/07/02 08:53:28;;;;;;;1999.90;999.90;;;28.40;53.70;;;;;;5029573;28;20034;-85
2021/07/02 08:55:56;;;;;;;1999.90;999.90;;;28.40;53.60;;;;;;5028960;28;20492;-83
2021/07/02 08:58:24;;;;;;;1999.90;999.90;;;28.50;53.50;;;;;;5014241;28;20033;-85
2021/07/02 09:00:50;;;;;;;1999.90;999.90;;;28.60;53.40;;;;;;5014009;28;20054;-86
2021/07/02 09:03:36;;;;;;;1999.90;999.90;;;28.80;53.20;;;;;;5014092;28;20577;-85
2021/07/02 09:06:08;;;;;;;1999.90;999.90;;;28.90;53.10;;;;;;5029291;28;20030;-85
2021/07/02 09:08:35;;;;;;;1999.90;999.90;;;28.80;53.00;;;;;;5013034;28;20041;-85
2021/07/02 09:11:01;;;;;;;1999.90;999.90;;;28.80;53.20;;;;;;5029079;28;20346;-85
2021/07/02 09:13:40;;;;;;;1999.90;999.90;;;28.80;53.20;;;;;;5013992;28;20025;-85
2021/07/02 09:16:22;;;;;;;1999.90;999.90;;;28.80;53.00;;;;;;5013252;28;20033;-84
2021/07/02 09:18:49;;;;;;;1999.90;999.90;;;28.80;52.90;;;;;;5010378;28;20485;-84
2021/07/02 09:21:28;;;;;;;1999.90;999.90;;;28.70;53.10;;;;;;5013772;28;20049;-85
2021/07/02 09:23:57;;;;;;;1999.90;999.90;;;28.60;53.20;;;;;;5028527;28;20026;-88
2021/07/02 09:26:34;;;;;;;1999.90;989.67;;;28.50;53.30;;;;;;5028056;28;20038;-85
2021/07/02 09:29:23;;;;;;;1999.90;999.90;;;28.30;53.30;;;;;;5013305;28;20037;-85
2021/07/02 09:31:57;;;;;;;1999.90;999.90;;;28.20;53.50;;;;;;5027949;28;20484;-85
2021/07/02 09:34:24;;;;;;;1999.90;999.90;;;28.10;53.70;;;;;;5012070;28;20045;-85
2021/07/02 09:36:50;;;;;;;1999.90;999.90;;;28.00;53.70;;;;;;5028906;28;20378;-84
2021/07/02 09:39:29;;;;;;;1999.90;999.90;;;28.00;53.80;;;;;;5013631;28;20030;-86
2021/07/02 09:41:57;;;;;;;;;;;27.80;53.80;;;;;;5028742;28;20046;-83
2021/07/02 09:44:23;;;;;;;1999.90;999.90;;;27.70;54.00;;;;;;5013106;28;19913;-85
2021/07/02 09:46:49;;;;;;;1999.90;999.90;;;27.60;54.10;;;;;;5027596;28;20045;-84
2021/07/02 09:49:25;;;;;;;1999.90;999.90;;;27.60;54.20;;;;;;5028489;28;20030;-85
2021/07/02 09:52:04;;;;;;;1999.90;999.90;;;27.70;54.00;;;;;;5009064;28;20056;-84
2021/07/02 09:54:30;;;;;;;1999.90;999.90;;;27.90;53.70;;;;;;5012470;28;20026;-85
2021/07/02 09:57:16;;;;;;;1999.90;999.90;;;28.10;53.50;;;;;;5028206;28;20036;-84
2021/07/02 09:59:42;;;;;;;1999.90;999.90;;;28.20;53.20;;;;;;5028200;28;20022;-84
2021/07/02 10:02:18;;;;;;;1999.90;917.47;;;28.40;53.10;;;;;;5027355;28;20046;-85
2021/07/02 10:05:00;;;;;;;1999.90;999.90;;;28.60;52.90;;;;;;5012975;28;20380;-85
2021/07/02 10:07:27;;;;;;;1999.90;999.90;;;28.60;52.70;;;;;;4997286;28;20388;-85
2021/07/02 10:09:53;;;;;;;1999.90;999.90;;;28.50;52.70;;;;;;5028629;28;20017;-85
2021/07/02 10:12:20;;;;;;;1999.90;999.90;;;28.30;52.90;;;;;;5011869;28;20033;-86
2021/07/02 10:14:50;;;;;;;1999.90;999.90;;;28.20;53.00;;;;;;5027743;28;20022;-85
2021/07/02 10:17:19;;;;;;;1999.90;999.90;;;28.10;53.20;;;;;;5027273;28;20034;-85
2021/07/02 10:19:48;;;;;;;1999.90;999.90;;;28.10;53.20;;;;;;4995155;28;20038;-85
2021/07/02 10:22:18;;;;;;;1999.90;999.90;;;28.20;53.20;;;;;;5027821;28;20038;-86
2021/07/02 10:24:47;;;;;;;1999.90;999.90;;;28.20;53.10;;;;;;5012003;28;20018;-85
2021/07/02 10:27:13;;;;;;;1999.90;999.90;;;28.10;53.10;;;;;;5027622;28;20037;-85
2021/07/02 10:29:39;;;;;;;1999.90;853.13;;;28.10;53.10;;;;;;5027611;28;20045;-85
2021/07/02 10:32:06;;;;;;;1999.90;999.90;;;28.10;53.00;;;;;;5026892;28;20034;-85
2021/07/02 10:34:34;;;;;;;1999.90;999.90;;;28.10;53.00;;;;;;5027606;28;20034;-85
2021/07/02 10:37:00;;;;;;;1999.90;999.90;;;28.10;52.80;;;;;;5027594;28;20388;-85
2021/07/02 10:39:28;;;;;;;1999.90;999.90;;;28.10;52.70;;;;;;4992056;28;20039;-83
2021/07/02 10:42:07;;;;;;;1999.90;999.90;;;28.20;52.70;;;;;;5009619;28;20392;-86
2021/07/02 10:44:33;;;;;;;1999.90;999.90;;;28.20;52.60;;;;;;5027602;28;20495;-86
2021/07/02 10:46:59;;;;;;;1999.90;999.90;;;28.10;52.50;;;;;;5011356;28;20034;-85
2021/07/02 10:49:38;;;;;;;1999.90;999.90;;;28.20;52.50;;;;;;5012261;28;20037;-84
2021/07/02 10:52:28;;;;;;;1999.90;999.90;;;28.20;52.30;;;;;;5010606;28;20038;-85
2021/07/02 10:54:55;;;;;;;1999.90;999.90;;;28.30;52.20;;;;;;5005335;28;20049;-84
2021/07/02 10:57:24;;;;;;;1999.90;999.90;;;28.40;52.10;;;;;;4994579;28;20034;-85
2021/07/02 10:59:50;;;;;;;1999.90;999.90;;;28.50;52.00;;;;;;5026927;28;20033;-85
2021/07/02 11:02:20;;;;;;;1999.90;999.90;;;28.50;51.90;;;;;;5011500;28;20037;-86
2021/07/02 11:04:46;;;;;;;1999.90;999.90;;;28.40;51.80;;;;;;5027374;28;20029;-86
2021/07/02 11:07:19;;;;;;;1999.90;999.90;;;28.40;51.80;;;;;;5011992;28;20034;-85
2021/07/02 11:09:51;;;;;;;1999.90;999.90;;;28.50;51.70;;;;;;5012653;28;20032;-86
2021/07/02 11:12:20;;;;;;;1999.90;999.90;;;28.60;51.50;;;;;;5012282;28;20030;-85
2021/07/02 11:17:28;;;;;;;1999.90;999.90;;;28.80;51.20;;;;;;5004462;28;20030;-85
2021/07/02 11:20:22;;;;;;;1999.90;999.90;;;29.00;51.00;;;;;;5012057;28;20025;-86
2021/07/02 11:22:58;;;;;;;1999.90;999.90;;;29.20;50.70;;;;;;5012160;28;20381;-85
2021/07/02 11:25:27;;;;;;;1999.90;999.90;;;29.40;50.40;;;;;;5011154;28;20041;-85
2021/07/02 11:27:55;;;;;;;1999.90;999.90;;;29.50;50.20;;;;;;5011225;28;20396;-86
2021/07/02 11:30:27;;;;;;;1999.90;999.90;;;29.60;50.10;;;;;;5012020;28;20045;-86
2021/07/02 11:32:57;;;;;;;1999.90;999.90;;;29.60;50.10;;;;;;5015721;28;20026;-86
2021/07/02 11:35:37;;;;;;;1999.90;999.90;;;29.50;50.00;;;;;;5030669;28;20037;-85
2021/07/02 11:38:16;;;;;;;1999.90;999.90;;;29.60;50.10;;;;;;5030853;28;20026;-86
2021/07/02 11:40:58;;;;;;;1999.90;999.90;;;29.60;50.10;;;;;;5015666;28;20498;-85
2021/07/02 11:43:39;;;;;;;1999.90;999.90;;;29.50;50.10;;;;;;5000443;28;20412;-84
2021/07/02 11:46:15;;;;;;;1999.90;999.90;;;29.50;50.10;;;;;;5030099;28;20037;-85
2021/07/02 11:48:42;;;;;;;1999.90;999.90;;;29.60;50.70;;;;;;5014887;28;20030;-86
2021/07/02 11:51:10;;;;;;;1999.90;999.90;;;29.60;50.10;;;;;;5030477;28;20377;-85
2021/07/02 11:53:41;;;;;;;1999.90;642.97;;;29.60;50.00;;;;;;5030531;28;20504;-86
2021/07/02 11:56:09;;;;;;;1999.90;999.90;;;29.60;49.80;;;;;;5030590;28;20030;-85
2021/07/02 11:59:01;;;;;;;1999.90;953.83;;;29.60;49.80;;;;;;5030144;28;20030;-85
2021/07/02 12:01:37;;;;;;;1999.90;971.35;;;29.60;49.70;;;;;;5000227;28;20038;-84
2021/07/02 12:04:08;;;;;;;1999.90;946.78;;;29.60;49.60;;;;;;5015301;28;20026;-84
2021/07/02 12:06:45;;;;;;;1999.90;999.90;;;29.60;49.60;;;;;;5010372;28;20031;-86
2021/07/02 12:09:24;;;;;;;1999.90;956.10;;;29.50;49.50;;;;;;5029861;28;20026;-85
2021/07/02 12:11:58;;;;;;;1999.90;999.90;;;29.40;49.50;;;;;;5010207;28;20046;-83
2021/07/02 12:14:32;;;;;;;1757.88;937.28;;;29.40;49.70;;;;;;5023302;28;20362;-86
2021/07/02 12:16:59;;;;;;;1680.72;900.17;;;29.30;49.70;;;;;;5029563;28;20067;-86
2021/07/02 12:19:27;;;;;;;1999.90;999.90;;;29.30;49.70;;;;;;5030248;28;20026;-84
2021/07/02 12:22:13;;;;;;;1655.25;976.20;;;29.30;49.70;;;;;;5015216;28;20041;-85
2021/07/02 12:24:44;;;;;;;1999.90;999.90;;;29.40;49.60;;;;;;5029575;28;20033;-86
2021/07/02 12:27:14;;;;;;;;;;;29.50;49.40;;;;;;5009965;28;20122;-86
2021/07/02 12:29:43;;;;;;;1999.90;999.90;;;29.70;49.20;;;;;;5025234;28;19917;-86
2021/07/02 12:32:16;;;;;;;1999.90;999.90;;;29.90;48.90;;;;;;5028933;28;20041;-86
2021/07/02 12:34:49;;;;;;;1999.90;999.90;;;30.10;48.60;;;;;;5013536;28;20033;-86